Time;durP1;ratioP1;P1;durP2;ratioP2;P2;SDS_P1;SDS_P2;PMS_P1;PMS_P2;Temp;Humidity;BMP_temperature;BMP_pressure;BME280_temperature;BME280_humidity;BME280_pressure;Samples;Min_cycle;Max_cycle;Signal;HPM_P1;HPM_P2
2022/01/14 00:02:06;;;;;;;7.68;6.93;;;6.30;99.90;;;;;;5019395;28;20042;-78
2022/01/14 00:04:32;;;;;;;17.58;6.10;;;6.30;99.90;;;;;;5020931;28;20048;-78
2022/01/14 00:06:58;;;;;;;5.57;3.97;;;6.30;99.90;;;;;;4987757;28;20041;-77
2022/01/14 00:09:24;;;;;;;7.80;5.57;;;6.30;99.90;;;;;;5003741;28;20458;-77
2022/01/14 00:11:56;;;;;;;6.45;5.03;;;6.30;99.90;;;;;;5002698;28;20045;-78
2022/01/14 00:14:40;;;;;;;6.93;3.92;;;6.30;99.90;;;;;;5021379;28;20049;-78
2022/01/14 00:17:11;;;;;;;10.23;5.60;;;6.30;99.90;;;;;;5021920;28;20037;-78
2022/01/14 00:19:37;;;;;;;11.70;6.57;;;6.30;99.90;;;;;;5021474;28;20199;-78
2022/01/14 00:22:11;;;;;;;5.60;5.10;;;6.30;99.90;;;;;;5021720;28;20053;-78
2022/01/14 00:33:01;;;;;;;11.80;7.57;;;6.30;99.90;;;;;;5003615;28;20055;-78
2022/01/14 00:35:27;;;;;;;5.63;4.95;;;6.30;99.90;;;;;;5002857;28;20052;-77
2022/01/14 00:37:53;;;;;;;6.60;5.18;;;6.30;99.90;;;;;;5021463;28;20060;-77
2022/01/14 00:40:19;;;;;;;14.45;5.75;;;6.30;99.90;;;;;;5019922;28;20049;-78
2022/01/14 00:42:46;;;;;;;24.83;5.85;;;6.30;99.90;;;;;;5021401;28;20260;-78
2022/01/14 00:45:11;;;;;;;8.55;6.03;;;6.30;99.90;;;;;;5021236;28;20057;-77
2022/01/14 00:47:39;;;;;;;19.73;7.32;;;6.30;99.90;;;;;;5020369;28;20523;-77
2022/01/14 00:50:09;;;;;;;10.00;6.40;;;6.30;99.90;;;;;;5020624;28;20076;-78
2022/01/14 00:52:36;;;;;;;10.85;6.13;;;6.30;99.90;;;;;;5020868;28;20045;-77
2022/01/14 00:55:03;;;;;;;7.47;5.78;;;6.30;99.90;;;;;;5019265;28;20073;-78
2022/01/14 01:00:16;;;;;;;8.65;7.03;;;6.30;99.90;;;;;;4973464;28;20610;-77
2022/01/14 01:02:42;;;;;;;15.13;5.82;;;6.40;99.90;;;;;;5021299;28;20060;-77
2022/01/14 01:05:08;;;;;;;8.23;6.43;;;6.40;99.90;;;;;;5020581;28;20045;-78
2022/01/14 01:07:34;;;;;;;6.65;5.88;;;6.40;99.90;;;;;;5020466;28;20120;-78
2022/01/14 01:09:59;;;;;;;9.90;5.82;;;6.40;99.90;;;;;;5019497;28;20136;-77
2022/01/14 01:12:35;;;;;;;7.60;5.78;;;6.40;99.90;;;;;;5020520;28;20048;-77
2022/01/14 01:15:06;;;;;;;8.63;5.47;;;6.40;99.90;;;;;;5002099;28;20057;-78
2022/01/14 01:17:33;;;;;;;16.38;6.50;;;6.40;99.90;;;;;;5003204;28;20520;-78
2022/01/14 01:20:00;;;;;;;14.77;7.80;;;6.40;99.90;;;;;;5002673;28;20399;-77
2022/01/14 01:22:26;;;;;;;7.53;6.53;;;6.40;99.90;;;;;;5020264;28;20048;-77
2022/01/14 01:24:52;;;;;;;11.68;5.80;;;6.40;99.90;;;;;;5019394;28;20049;-78
2022/01/14 01:27:19;;;;;;;7.97;5.95;;;6.40;99.90;;;;;;5020060;28;20492;-77
2022/01/14 01:30:11;;;;;;;7.40;6.10;;;6.40;99.90;;;;;;5016386;28;20170;-77
2022/01/14 01:32:37;;;;;;;7.75;5.93;;;6.40;99.90;;;;;;5002862;28;20735;-78
2022/01/14 01:35:02;;;;;;;36.95;7.07;;;6.40;99.90;;;;;;5020390;28;20030;-77
2022/01/14 01:37:28;;;;;;;6.45;4.85;;;6.40;99.90;;;;;;5019287;28;20124;-78
2022/01/14 01:39:53;;;;;;;12.10;6.88;;;6.40;99.90;;;;;;5019201;28;20064;-77
2022/01/14 01:42:26;;;;;;;15.63;4.53;;;6.40;99.90;;;;;;5019824;28;20060;-77
2022/01/14 01:44:52;;;;;;;8.13;5.93;;;6.40;99.90;;;;;;5020288;28;20108;-77
2022/01/14 01:47:19;;;;;;;5.90;5.28;;;6.40;99.90;;;;;;5020077;28;20575;-78
2022/01/14 01:49:45;;;;;;;5.82;5.22;;;6.40;99.90;;;;;;5020458;28;20034;-78
2022/01/14 01:52:10;;;;;;;8.05;7.20;;;6.40;99.90;;;;;;5019913;28;20052;-78
2022/01/14 01:54:36;;;;;;;14.50;6.55;;;6.40;99.90;;;;;;5018735;28;20112;-77
2022/01/14 01:57:02;;;;;;;6.10;5.32;;;6.40;99.90;;;;;;5002813;28;20547;-77
2022/01/14 01:59:29;;;;;;;10.30;6.32;;;6.40;99.90;;;;;;5020298;28;20104;-77
2022/01/14 02:01:57;;;;;;;11.27;7.03;;;6.40;99.90;;;;;;5019707;28;20037;-78
2022/01/14 02:04:23;;;;;;;6.40;5.55;;;6.40;99.90;;;;;;5002650;28;20053;-77
2022/01/14 02:06:51;;;;;;;6.80;4.95;;;6.40;99.90;;;;;;5002088;28;20053;-77
2022/01/14 02:09:17;;;;;;;13.20;6.68;;;6.40;99.90;;;;;;5019822;28;20057;-77
2022/01/14 02:11:42;;;;;;;5.38;4.80;;;6.40;99.90;;;;;;5019987;28;20052;-77
2022/01/14 02:14:25;;;;;;;4.57;4.18;;;6.40;99.90;;;;;;5019413;28;20068;-77
2022/01/14 02:19:30;;;;;;;8.70;4.95;;;6.40;99.90;;;;;;5006913;28;20053;-77
2022/01/14 02:22:12;;;;;;;23.45;5.88;;;6.40;99.90;;;;;;5001943;28;20053;-77
2022/01/14 02:27:12;;;;;;;7.82;6.22;;;6.40;99.90;;;;;;5004153;28;20053;-77
2022/01/14 02:29:38;;;;;;;5.57;4.43;;;6.40;99.90;;;;;;5018391;28;20112;-77
2022/01/14 02:32:04;;;;;;;6.93;5.07;;;6.40;99.90;;;;;;5014813;28;20126;-77
2022/01/14 02:34:30;;;;;;;8.82;4.57;;;6.40;99.90;;;;;;5023108;28;20052;-77
2022/01/14 02:36:56;;;;;;;9.98;5.43;;;6.40;99.90;;;;;;5023330;28;20080;-77
2022/01/14 02:39:21;;;;;;;8.25;6.82;;;6.40;99.90;;;;;;5022406;28;20134;-78
2022/01/14 02:41:50;;;;;;;9.57;5.63;;;6.40;99.90;;;;;;5023286;28;20150;-78
2022/01/14 02:44:24;;;;;;;9.50;7.50;;;6.50;99.90;;;;;;5023544;28;20053;-78
2022/01/14 02:46:56;;;;;;;7.47;6.72;;;6.50;99.90;;;;;;5023399;28;20049;-77
2022/01/14 02:49:26;;;;;;;9.82;6.93;;;6.50;99.90;;;;;;5005620;28;20084;-77
2022/01/14 02:51:52;;;;;;;14.07;6.70;;;6.50;99.90;;;;;;5005172;28;20053;-77
2022/01/14 02:54:23;;;;;;;5.07;4.60;;;6.50;99.90;;;;;;5004624;28;20050;-77
2022/01/14 02:56:52;;;;;;;5.53;4.85;;;6.50;99.90;;;;;;5022847;28;20415;-77
2022/01/14 02:59:19;;;;;;;6.25;5.82;;;6.50;99.90;;;;;;5023209;28;20041;-78
2022/01/14 03:01:47;;;;;;;9.45;7.28;;;6.50;99.90;;;;;;5023458;28;20040;-77
2022/01/14 03:04:18;;;;;;;9.07;5.57;;;6.50;99.90;;;;;;5023851;28;20120;-77
2022/01/14 03:06:44;;;;;;;10.10;5.88;;;6.50;99.90;;;;;;5023288;28;20073;-77
2022/01/14 03:09:10;;;;;;;7.57;5.95;;;6.50;99.90;;;;;;5004437;28;20038;-78
2022/01/14 03:11:39;;;;;;;6.15;5.38;;;6.50;99.90;;;;;;5004649;28;20514;-77
2022/01/14 03:14:05;;;;;;;8.63;7.78;;;6.50;99.90;;;;;;5022551;28;20073;-78
2022/01/14 03:16:39;;;;;;;13.63;6.47;;;6.50;99.90;;;;;;5022467;28;20037;-78
2022/01/14 03:19:08;;;;;;;7.85;5.72;;;6.50;99.90;;;;;;5022788;28;20756;-78
2022/01/14 03:21:40;;;;;;;16.10;7.75;;;6.50;99.90;;;;;;5022566;28;20053;-78
2022/01/14 03:25:36;;;;;;;7.78;5.78;;;6.50;99.90;;;;;;5003635;28;20057;-78
2022/01/14 03:27:08;;;;;;;18.92;6.90;;;6.50;99.90;;;;;;5004744;28;20053;-77
2022/01/14 03:29:33;;;;;;;6.22;5.60;;;6.50;99.90;;;;;;5018141;28;20402;-77
2022/01/14 03:31:59;;;;;;;10.63;6.70;;;6.50;99.90;;;;;;5011787;28;20045;-78
2022/01/14 03:34:25;;;;;;;14.38;7.32;;;6.50;99.90;;;;;;5022065;28;20046;-78
2022/01/14 03:36:51;;;;;;;7.20;5.50;;;6.50;99.90;;;;;;5021691;28;20045;-77
2022/01/14 03:39:18;;;;;;;8.40;6.97;;;6.50;99.90;;;;;;5021135;28;20452;-78
2022/01/14 03:41:44;;;;;;;14.52;6.78;;;6.50;99.90;;;;;;5022439;28;20160;-77
2022/01/14 03:44:09;;;;;;;6.57;5.38;;;6.50;99.90;;;;;;4997918;28;20054;-77
2022/01/14 03:46:35;;;;;;;13.18;6.03;;;6.50;99.90;;;;;;4982499;28;20058;-78
2022/01/14 03:49:00;;;;;;;26.50;4.25;;;6.50;99.90;;;;;;4980919;28;20410;-78
2022/01/14 03:51:28;;;;;;;19.52;6.93;;;6.50;99.90;;;;;;4982591;28;20042;-77
2022/01/14 03:53:54;;;;;;;5.50;4.97;;;6.50;99.90;;;;;;4982905;28;20061;-77
2022/01/14 03:56:21;;;;;;;12.05;6.30;;;6.50;99.90;;;;;;4980467;28;20054;-77
2022/01/14 03:58:46;;;;;;;8.10;6.05;;;6.50;99.90;;;;;;4981502;28;20145;-77
2022/01/14 04:01:13;;;;;;;10.48;7.72;;;6.50;99.90;;;;;;4982892;28;20078;-78
2022/01/14 04:03:40;;;;;;;20.25;7.50;;;6.50;99.90;;;;;;4982188;28;20142;-77
2022/01/14 04:06:06;;;;;;;12.43;6.47;;;6.50;99.90;;;;;;4980915;28;20043;-77
2022/01/14 04:08:32;;;;;;;25.77;7.68;;;6.50;99.90;;;;;;4982752;28;20038;-77
2022/01/14 04:11:00;;;;;;;8.48;7.68;;;6.50;99.90;;;;;;4981444;28;20124;-77
2022/01/14 04:16:24;;;;;;;10.07;7.10;;;6.50;99.90;;;;;;4966399;28;20050;-77
2022/01/14 04:18:51;;;;;;;11.23;7.07;;;6.60;99.90;;;;;;4974954;28;20185;-77
2022/01/14 04:21:18;;;;;;;21.70;7.50;;;6.50;99.90;;;;;;4982472;28;20057;-77
2022/01/14 04:23:43;;;;;;;6.47;5.82;;;6.50;99.90;;;;;;4982685;28;20076;-77
2022/01/14 04:26:10;;;;;;;10.93;7.95;;;6.50;99.90;;;;;;4980830;28;20042;-77
2022/01/14 04:28:36;;;;;;;7.25;6.65;;;6.50;99.90;;;;;;4981634;28;20042;-77
2022/01/14 04:31:03;;;;;;;8.15;6.38;;;6.50;99.90;;;;;;4980770;28;20136;-78
2022/01/14 04:33:30;;;;;;;6.18;5.68;;;6.40;99.90;;;;;;4981192;28;20050;-78
2022/01/14 04:36:00;;;;;;;7.53;6.68;;;6.50;99.90;;;;;;4982201;28;20736;-77
2022/01/14 04:38:30;;;;;;;22.35;7.53;;;6.50;99.90;;;;;;4981663;28;20076;-77
2022/01/14 04:40:56;;;;;;;12.43;5.82;;;6.40;99.90;;;;;;4979885;28;20061;-77
2022/01/14 04:43:22;;;;;;;11.75;7.60;;;6.40;99.90;;;;;;5005341;28;20054;-77
2022/01/14 04:48:36;;;;;;;6.93;6.22;;;6.40;99.90;;;;;;4988251;28;20052;-77
2022/01/14 04:51:05;;;;;;;7.05;6.45;;;6.40;99.90;;;;;;5020770;28;20176;-78
2022/01/14 04:53:30;;;;;;;7.20;5.80;;;6.40;99.90;;;;;;5021000;28;20045;-77
2022/01/14 04:55:57;;;;;;;8.90;6.75;;;6.40;99.90;;;;;;5019363;28;20048;-77
2022/01/14 04:58:23;;;;;;;13.70;7.65;;;6.40;99.90;;;;;;5003499;28;20073;-78
2022/01/14 05:00:49;;;;;;;8.73;6.18;;;6.40;99.90;;;;;;5020788;28;20049;-77
2022/01/14 05:03:14;;;;;;;7.95;5.30;;;6.40;99.90;;;;;;5003505;28;20064;-78
2022/01/14 05:05:43;;;;;;;11.73;6.90;;;6.40;99.90;;;;;;5020342;28;20479;-78
2022/01/14 05:08:15;;;;;;;7.22;6.55;;;6.40;99.90;;;;;;5003275;28;20053;-77
2022/01/14 05:13:18;;;;;;;5.80;5.22;;;6.30;99.90;;;;;;5002299;28;20049;-77
2022/01/14 05:15:44;;;;;;;9.10;6.78;;;6.40;99.90;;;;;;5020876;28;20517;-78
2022/01/14 05:18:10;;;;;;;7.35;6.70;;;6.40;99.90;;;;;;5020994;28;20045;-77
2022/01/14 05:20:35;;;;;;;10.10;7.20;;;6.30;99.90;;;;;;5020474;28;20081;-78
2022/01/14 05:23:01;;;;;;;7.68;6.10;;;6.40;99.90;;;;;;5003339;28;20403;-77
2022/01/14 05:25:27;;;;;;;11.55;4.93;;;6.40;99.90;;;;;;5019416;28;20049;-77
2022/01/14 05:27:52;;;;;;;11.55;6.95;;;6.30;99.90;;;;;;5020038;28;20459;-78
2022/01/14 05:30:18;;;;;;;10.35;9.32;;;6.30;99.90;;;;;;5000635;28;20115;-78
2022/01/14 05:32:46;;;;;;;9.32;8.35;;;6.30;99.90;;;;;;5020986;28;20115;-77
2022/01/14 05:35:14;;;;;;;18.90;5.80;;;6.30;99.90;;;;;;5002635;28;20049;-78
2022/01/14 05:37:39;;;;;;;14.15;7.32;;;6.30;99.90;;;;;;5019218;28;20500;-77
2022/01/14 05:40:06;;;;;;;18.20;8.52;;;6.30;99.90;;;;;;5019917;28;20045;-78
2022/01/14 05:42:33;;;;;;;5.72;3.88;;;6.30;99.90;;;;;;5001651;28;20084;-77
2022/01/14 05:45:00;;;;;;;7.80;5.47;;;6.30;99.90;;;;;;5020258;28;20055;-77
2022/01/14 05:47:25;;;;;;;23.05;6.70;;;6.30;99.90;;;;;;5020288;28;20049;-78
2022/01/14 05:49:51;;;;;;;9.95;8.30;;;6.30;99.90;;;;;;5020316;28;20053;-78
2022/01/14 05:52:17;;;;;;;8.55;5.93;;;6.30;99.90;;;;;;5002651;28;20492;-78
2022/01/14 05:54:43;;;;;;;9.52;6.72;;;6.30;99.90;;;;;;5019541;28;20037;-77
2022/01/14 05:57:08;;;;;;;7.55;5.10;;;6.30;99.90;;;;;;5014832;28;20484;-77
2022/01/14 05:59:34;;;;;;;8.95;5.15;;;6.30;99.90;;;;;;4985395;28;20520;-78
2022/01/14 06:02:00;;;;;;;8.15;7.25;;;6.30;99.90;;;;;;5024138;28;20052;-77
2022/01/14 06:04:25;;;;;;;13.38;5.60;;;6.30;99.90;;;;;;5006084;28;20143;-77
2022/01/14 06:06:51;;;;;;;5.22;4.82;;;6.30;99.90;;;;;;5024332;28;20041;-77
2022/01/14 06:09:17;;;;;;;5.70;5.20;;;6.30;99.90;;;;;;5004894;28;20085;-77
2022/01/14 06:11:42;;;;;;;6.00;5.50;;;6.30;99.90;;;;;;5024607;28;20534;-77
2022/01/14 06:14:08;;;;;;;6.10;5.50;;;6.30;99.90;;;;;;5023351;28;20041;-77
2022/01/14 06:16:34;;;;;;;5.18;4.75;;;6.30;99.90;;;;;;5023251;28;20488;-78
2022/01/14 06:18:59;;;;;;;5.95;4.53;;;6.30;99.90;;;;;;5024383;28;20041;-79
2022/01/14 06:21:25;;;;;;;6.55;5.72;;;6.30;99.90;;;;;;4999700;28;20195;-77
2022/01/14 06:23:50;;;;;;;12.57;6.35;;;6.40;99.90;;;;;;5023586;28;20033;-77
2022/01/14 06:26:16;;;;;;;15.52;6.10;;;6.40;99.90;;;;;;5023420;28;20122;-77
2022/01/14 06:28:43;;;;;;;6.40;5.80;;;6.40;99.90;;;;;;5005677;28;20071;-78
2022/01/14 06:31:09;;;;;;;8.88;3.97;;;6.30;99.90;;;;;;5009763;28;20050;-78
2022/01/14 06:33:34;;;;;;;5.45;4.93;;;6.40;99.90;;;;;;5008864;28;20104;-78
2022/01/14 06:36:00;;;;;;;6.43;3.83;;;6.40;99.90;;;;;;4997767;28;20411;-78
2022/01/14 06:38:26;;;;;;;6.53;5.88;;;6.40;99.90;;;;;;5023474;28;20701;-78
2022/01/14 06:40:51;;;;;;;6.72;4.72;;;6.40;99.90;;;;;;5023047;28;20045;-77
2022/01/14 06:43:17;;;;;;;11.93;5.00;;;6.40;99.90;;;;;;5023288;28;20463;-78
2022/01/14 06:45:43;;;;;;;14.95;5.45;;;6.40;99.90;;;;;;5021214;28;20076;-78
2022/01/14 06:48:09;;;;;;;6.00;4.55;;;6.40;99.90;;;;;;5021837;28;20037;-79
2022/01/14 06:50:35;;;;;;;9.68;4.45;;;6.50;99.90;;;;;;5023058;28;20052;-79
2022/01/14 06:53:01;;;;;;;3.35;3.08;;;6.50;99.90;;;;;;5005257;28;20045;-80
2022/01/14 06:55:26;;;;;;;4.22;3.45;;;6.50;99.90;;;;;;5013623;28;20404;-82
2022/01/14 06:57:52;;;;;;;11.48;4.07;;;6.50;99.90;;;;;;5021428;28;20045;-81
2022/01/14 07:00:19;;;;;;;8.30;4.40;;;6.50;99.90;;;;;;5021059;28;20044;-82
2022/01/14 07:02:44;;;;;;;3.67;2.95;;;6.50;99.90;;;;;;5022586;28;20063;-81
2022/01/14 07:05:11;;;;;;;5.28;3.30;;;6.50;99.90;;;;;;5021991;28;20496;-80
2022/01/14 07:07:37;;;;;;;3.00;2.47;;;6.50;99.90;;;;;;5021676;28;20060;-81
2022/01/14 07:10:04;;;;;;;3.65;3.33;;;6.50;99.90;;;;;;5021188;28;20033;-81
2022/01/14 07:12:32;;;;;;;6.63;3.15;;;6.50;99.90;;;;;;5020840;28;20491;-81
2022/01/14 07:14:59;;;;;;;4.75;2.85;;;6.50;99.90;;;;;;5003500;28;20053;-81
2022/01/14 07:17:26;;;;;;;4.82;2.67;;;6.50;99.90;;;;;;5003908;28;20049;-80
2022/01/14 07:19:53;;;;;;;4.47;3.95;;;6.50;99.90;;;;;;5021820;28;20041;-81
2022/01/14 07:22:20;;;;;;;2.83;2.47;;;6.50;99.90;;;;;;5021944;28;20045;-80
2022/01/14 07:24:46;;;;;;;2.78;2.58;;;6.50;99.90;;;;;;5021178;28;20037;-80
2022/01/14 07:27:13;;;;;;;5.80;3.50;;;6.50;99.90;;;;;;4988155;28;20587;-80
2022/01/14 07:29:39;;;;;;;8.27;3.13;;;6.50;99.90;;;;;;5016227;28;20037;-83
2022/01/14 07:32:05;;;;;;;3.83;3.03;;;6.60;99.90;;;;;;4978168;28;20038;-87
2022/01/14 07:34:31;;;;;;;2.25;2.10;;;6.50;99.90;;;;;;5003071;28;20428;-88
2022/01/14 07:36:56;;;;;;;2.85;2.65;;;6.60;99.90;;;;;;5021022;28;20205;-87
2022/01/14 07:39:23;;;;;;;1.35;1.30;;;6.60;99.90;;;;;;5020295;28;20053;-87
2022/01/14 07:41:53;;;;;;;6.55;3.65;;;6.60;99.90;;;;;;5003062;28;20103;-86
2022/01/14 07:44:20;;;;;;;7.28;2.83;;;6.50;99.90;;;;;;5003789;28;20424;-87
2022/01/14 07:46:47;;;;;;;4.18;3.58;;;6.60;99.90;;;;;;5022342;28;20056;-86
2022/01/14 07:49:13;;;;;;;2.92;2.47;;;6.60;99.90;;;;;;4987658;28;20053;-86
2022/01/14 07:51:42;;;;;;;4.05;2.33;;;6.50;99.90;;;;;;5021045;28;20484;-87
2022/01/14 07:54:08;;;;;;;4.00;2.60;;;6.60;99.90;;;;;;5017868;28;20069;-85
2022/01/14 07:56:39;;;;;;;5.40;3.08;;;6.50;99.90;;;;;;5001841;28;20046;-79
2022/01/14 07:59:06;;;;;;;2.92;1.40;;;6.60;99.90;;;;;;5003822;28;20499;-78
2022/01/14 08:01:33;;;;;;;5.18;3.35;;;6.60;99.90;;;;;;5020845;28;20045;-78
2022/01/14 08:03:59;;;;;;;2.20;1.85;;;6.60;99.90;;;;;;5021313;28;20088;-78
2022/01/14 08:06:26;;;;;;;14.15;2.78;;;6.60;99.90;;;;;;5003205;28;20057;-78
2022/01/14 08:08:52;;;;;;;2.45;2.25;;;6.60;99.90;;;;;;5019976;28;20092;-78
2022/01/14 08:11:17;;;;;;;3.15;2.25;;;6.60;99.90;;;;;;5002810;28;20476;-78
2022/01/14 08:13:43;;;;;;;4.88;3.08;;;6.60;99.90;;;;;;5020861;28;20049;-78
2022/01/14 08:16:09;;;;;;;7.45;3.42;;;6.60;99.90;;;;;;5021128;28;20049;-78
2022/01/14 08:18:36;;;;;;;1.80;1.70;;;6.60;99.90;;;;;;5020662;28;20050;-78
2022/01/14 08:21:02;;;;;;;3.13;2.85;;;6.60;99.90;;;;;;5021057;28;20041;-78
2022/01/14 08:23:28;;;;;;;4.68;1.98;;;6.60;99.90;;;;;;5019601;28;20038;-78
2022/01/14 08:25:55;;;;;;;2.22;2.03;;;6.60;99.90;;;;;;5020182;28;20095;-79
2022/01/14 08:28:21;;;;;;;2.10;1.92;;;6.60;99.90;;;;;;5019896;28;20496;-78
2022/01/14 08:30:47;;;;;;;1.88;1.80;;;6.60;99.90;;;;;;5005755;28;20079;-77
2022/01/14 08:33:12;;;;;;;4.35;1.83;;;6.60;99.90;;;;;;5001125;28;20378;-78
2022/01/14 08:35:39;;;;;;;16.77;2.33;;;6.60;99.90;;;;;;5000490;28;20421;-78
2022/01/14 08:38:04;;;;;;;2.75;1.08;;;6.60;99.90;;;;;;5000180;28;20046;-78
2022/01/14 08:40:30;;;;;;;2.13;1.95;;;6.60;99.90;;;;;;4999604;28;20041;-78
2022/01/14 08:42:56;;;;;;;4.78;0.90;;;6.70;99.90;;;;;;5000469;28;20045;-77
2022/01/14 08:45:22;;;;;;;0.90;0.90;;;6.70;99.90;;;;;;5002660;28;20030;-77
2022/01/14 08:47:52;;;;;;;0.80;0.80;;;6.70;99.90;;;;;;4982820;28;20038;-77
2022/01/14 08:50:27;;;;;;;7.13;1.75;;;6.60;99.90;;;;;;4999901;28;20049;-77
2022/01/14 08:52:52;;;;;;;4.85;1.83;;;6.70;99.90;;;;;;4983149;28;20113;-77
2022/01/14 08:55:19;;;;;;;0.90;0.90;;;6.70;99.90;;;;;;4998614;28;20172;-77
2022/01/14 08:57:45;;;;;;;1.52;1.42;;;6.70;99.90;;;;;;4983565;28;20038;-77
2022/01/14 09:00:13;;;;;;;4.15;1.73;;;6.70;99.90;;;;;;5000551;28;20046;-77
2022/01/14 09:02:39;;;;;;;2.50;1.15;;;6.70;99.90;;;;;;4999620;28;20042;-77
2022/01/14 09:05:05;;;;;;;6.50;2.60;;;6.70;99.90;;;;;;4982204;28;20065;-84
2022/01/14 09:07:31;;;;;;;2.85;1.38;;;6.70;99.90;;;;;;4981700;28;20077;-78
2022/01/14 09:09:56;;;;;;;7.25;2.40;;;6.70;99.90;;;;;;4999209;28;20116;-78
2022/01/14 09:12:22;;;;;;;2.35;2.25;;;6.70;99.90;;;;;;4982128;28;20100;-78
2022/01/14 09:14:48;;;;;;;2.55;1.50;;;6.80;99.90;;;;;;4999937;28;20042;-78
2022/01/14 09:17:14;;;;;;;11.52;1.65;;;6.70;99.90;;;;;;4982696;28;20054;-78
2022/01/14 09:19:40;;;;;;;3.35;1.70;;;6.80;99.90;;;;;;4999683;28;20041;-78
2022/01/14 09:22:07;;;;;;;4.68;1.92;;;6.80;99.90;;;;;;4999886;28;20041;-77
2022/01/14 09:24:33;;;;;;;2.05;1.85;;;6.80;99.90;;;;;;4998389;28;20045;-78
2022/01/14 09:26:59;;;;;;;3.42;1.52;;;6.80;99.90;;;;;;4999319;28;20075;-77
2022/01/14 09:29:25;;;;;;;3.83;1.38;;;6.80;99.90;;;;;;5002368;28;20460;-77
2022/01/14 09:31:50;;;;;;;3.00;1.33;;;6.80;99.90;;;;;;5019356;28;20523;-78
2022/01/14 09:34:16;;;;;;;1.02;0.88;;;6.80;99.90;;;;;;5002102;28;20110;-78
2022/01/14 09:36:42;;;;;;;1.80;1.27;;;6.80;99.90;;;;;;5019460;28;20049;-78
2022/01/14 09:39:08;;;;;;;1.02;1.02;;;6.80;99.90;;;;;;5018252;28;20073;-78
2022/01/14 09:41:34;;;;;;;1.55;1.45;;;6.80;99.90;;;;;;5019168;28;20049;-78
2022/01/14 09:44:02;;;;;;;1.23;1.15;;;6.80;99.90;;;;;;5018658;28;20060;-78
2022/01/14 09:46:27;;;;;;;6.45;1.27;;;6.80;99.90;;;;;;5018845;28;20052;-78
2022/01/14 09:48:53;;;;;;;2.38;2.17;;;6.90;99.90;;;;;;5001663;28;20045;-78
2022/01/14 09:51:19;;;;;;;1.90;1.60;;;6.90;99.90;;;;;;5018765;28;20507;-78
2022/01/14 09:53:45;;;;;;;1.88;1.42;;;6.90;99.90;;;;;;5018797;28;20080;-78
2022/01/14 09:56:19;;;;;;;10.00;0.82;;;6.90;99.90;;;;;;5019419;28;20060;-78
2022/01/14 09:58:49;;;;;;;1.52;1.42;;;6.90;99.90;;;;;;5002082;28;20042;-78
2022/01/14 10:01:21;;;;;;;2.05;1.33;;;7.00;99.90;;;;;;5001725;28;20046;-78
2022/01/14 10:03:49;;;;;;;5.43;1.45;;;7.00;99.90;;;;;;5001086;28;20136;-77
2022/01/14 10:06:41;;;;;;;4.82;1.00;;;7.00;99.90;;;;;;5001710;28;20053;-77
2022/01/14 10:09:11;;;;;;;5.47;1.85;;;7.00;99.90;;;;;;5000923;28;20549;-77
2022/01/14 10:11:40;;;;;;;1.45;1.00;;;7.00;99.90;;;;;;5018799;28;20409;-77
2022/01/14 10:14:09;;;;;;;2.90;1.63;;;7.00;99.90;;;;;;5035168;28;20415;-77
2022/01/14 10:16:35;;;;;;;1.60;1.33;;;7.00;99.90;;;;;;5001202;28;20511;-77
2022/01/14 10:19:01;;;;;;;20.23;2.10;;;7.00;99.90;;;;;;5019368;28;20073;-77
2022/01/14 10:21:32;;;;;;;4.03;1.92;;;7.00;99.90;;;;;;5019477;28;20049;-77
2022/01/14 10:23:59;;;;;;;11.13;1.83;;;7.10;99.90;;;;;;5018253;28;20065;-77
2022/01/14 10:26:30;;;;;;;3.72;1.40;;;7.10;99.90;;;;;;5034451;28;20084;-77
2022/01/14 10:29:01;;;;;;;2.28;0.82;;;7.10;99.90;;;;;;5018874;28;20627;-77
2022/01/14 10:31:32;;;;;;;4.50;1.65;;;7.10;99.90;;;;;;4999256;28;20042;-77
2022/01/14 10:34:16;;;;;;;5.15;1.23;;;7.10;99.90;;;;;;4998850;28;20124;-77
2022/01/14 10:36:47;;;;;;;2.67;2.00;;;7.10;99.90;;;;;;4999586;28;20057;-76
2022/01/14 10:39:24;;;;;;;16.40;1.70;;;7.10;99.90;;;;;;4998528;28;20246;-77
2022/01/14 10:41:51;;;;;;;3.97;2.22;;;7.10;99.90;;;;;;4981898;28;20052;-77
2022/01/14 10:44:32;;;;;;;3.10;1.95;;;7.10;99.90;;;;;;4999099;28;20081;-77
2022/01/14 10:47:19;;;;;;;8.20;1.83;;;7.10;99.90;;;;;;4999301;28;20077;-77
2022/01/14 10:49:46;;;;;;;1.63;1.52;;;7.10;99.90;;;;;;4985186;28;20091;-77
2022/01/14 10:52:15;;;;;;;0.77;0.77;;;7.20;99.90;;;;;;5002633;28;20057;-78
2022/01/14 10:54:46;;;;;;;6.03;1.55;;;7.10;99.90;;;;;;4984069;28;20413;-77
2022/01/14 10:57:21;;;;;;;2.95;1.67;;;7.10;99.90;;;;;;4984929;28;20124;-77
2022/01/14 10:59:50;;;;;;;10.55;2.40;;;7.10;99.90;;;;;;4985443;28;20052;-77
2022/01/14 11:02:36;;;;;;;2.88;1.48;;;7.20;99.90;;;;;;5002604;28;20073;-77
2022/01/14 11:05:12;;;;;;;11.88;2.00;;;7.20;99.90;;;;;;5002451;28;20652;-77
2022/01/14 11:07:40;;;;;;;1.92;1.83;;;7.20;99.90;;;;;;5001751;28;20037;-77
2022/01/14 11:10:16;;;;;;;7.55;2.65;;;7.20;99.90;;;;;;5001482;28;20124;-77
2022/01/14 11:12:43;;;;;;;3.67;2.28;;;7.20;99.90;;;;;;5004289;28;20038;-76
2022/01/14 11:15:10;;;;;;;2.30;1.55;;;7.20;99.90;;;;;;5003269;28;20034;-76
2022/01/14 11:17:40;;;;;;;4.45;1.58;;;7.20;99.90;;;;;;5002526;28;20381;-75
2022/01/14 11:20:08;;;;;;;2.25;2.03;;;7.20;99.90;;;;;;5003354;28;20451;-76
2022/01/14 11:25:18;;;;;;;7.00;2.45;;;7.20;99.90;;;;;;4985086;28;20140;-76
2022/01/14 11:27:59;;;;;;;5.82;1.38;;;7.20;99.90;;;;;;5003237;28;20046;-76
2022/01/14 11:30:45;;;;;;;2.15;1.77;;;7.20;99.90;;;;;;4996345;28;20126;-76
2022/01/14 11:33:13;;;;;;;1.13;0.95;;;7.20;99.90;;;;;;5021107;28;20068;-76
2022/01/14 11:35:39;;;;;;;4.82;1.48;;;7.20;99.90;;;;;;5022372;28;20080;-76
2022/01/14 11:38:43;;;;;;;2.13;1.63;;;7.20;99.90;;;;;;5021948;28;20081;-76
2022/01/14 11:41:14;;;;;;;13.07;2.60;;;7.20;99.90;;;;;;5004624;28;20102;-76
2022/01/14 11:43:54;;;;;;;4.53;1.77;;;7.20;99.90;;;;;;5004136;28;20054;-76
2022/01/14 11:46:32;;;;;;;6.75;2.05;;;7.20;99.90;;;;;;5021117;28;20076;-76
2022/01/14 11:48:59;;;;;;;5.25;1.38;;;7.30;99.90;;;;;;5020053;28;20435;-76
2022/01/14 11:51:24;;;;;;;1.42;1.35;;;7.30;99.90;;;;;;5003989;28;20052;-77
2022/01/14 11:53:55;;;;;;;14.85;2.60;;;7.30;99.90;;;;;;5021627;28;20033;-76
2022/01/14 11:56:32;;;;;;;6.75;2.28;;;7.30;99.90;;;;;;5022119;28;20136;-76
2022/01/14 11:59:22;;;;;;;6.55;1.90;;;7.30;99.90;;;;;;5022066;28;20052;-76
2022/01/14 12:01:55;;;;;;;3.13;1.73;;;7.30;99.90;;;;;;5003853;28;20045;-79
2022/01/14 12:04:21;;;;;;;1.10;1.10;;;7.30;99.90;;;;;;5003768;28;20045;-79
2022/01/14 12:06:50;;;;;;;2.67;2.47;;;7.30;99.90;;;;;;5004525;28;20045;-77
2022/01/14 12:09:23;;;;;;;1.55;1.05;;;7.30;99.90;;;;;;5002588;28;20049;-78
2022/01/14 12:12:28;;;;;;;2.67;1.38;;;7.30;99.90;;;;;;5019596;28;20038;-78
2022/01/14 12:14:58;;;;;;;14.73;2.45;;;7.30;99.90;;;;;;5035437;28;20072;-77
2022/01/14 12:17:33;;;;;;;4.88;1.73;;;7.30;99.90;;;;;;5020408;28;20044;-77
2022/01/14 12:20:11;;;;;;;1.33;1.23;;;7.30;99.90;;;;;;5020350;28;20088;-77
2022/01/14 12:22:37;;;;;;;1.98;1.73;;;7.30;99.90;;;;;;5002491;28;20053;-78
2022/01/14 12:25:04;;;;;;;4.05;2.47;;;7.40;99.90;;;;;;5020103;28;20041;-78
2022/01/14 12:27:41;;;;;;;2.58;2.38;;;7.40;99.90;;;;;;5020312;28;20053;-77
2022/01/14 12:30:10;;;;;;;4.00;2.05;;;7.30;99.90;;;;;;5011602;28;20046;-77
2022/01/14 12:32:41;;;;;;;3.80;1.65;;;7.40;99.90;;;;;;4982917;28;20064;-77
2022/01/14 12:35:13;;;;;;;1.35;1.25;;;7.40;99.90;;;;;;5000496;28;20117;-77
2022/01/14 12:37:44;;;;;;;3.53;2.08;;;7.40;99.90;;;;;;4981848;28;20046;-78
2022/01/14 12:40:37;;;;;;;7.07;2.70;;;7.40;99.90;;;;;;5000864;28;20050;-78
2022/01/14 12:43:10;;;;;;;1.73;1.63;;;7.40;99.90;;;;;;4992231;28;20049;-77
2022/01/14 12:45:52;;;;;;;1.73;0.85;;;7.40;99.90;;;;;;4982192;28;20053;-77
2022/01/14 12:48:40;;;;;;;3.77;1.87;;;7.40;99.90;;;;;;4982333;28;20068;-77
2022/01/14 12:51:08;;;;;;;4.38;2.03;;;7.50;99.90;;;;;;4982711;28;20273;-77
2022/01/14 12:53:34;;;;;;;14.20;2.13;;;7.50;99.90;;;;;;4999299;28;20049;-77
2022/01/14 12:56:01;;;;;;;9.32;1.23;;;7.50;99.90;;;;;;5000465;28;20118;-77
2022/01/14 12:58:28;;;;;;;1.35;1.25;;;7.50;99.90;;;;;;5000012;28;20061;-77
2022/01/14 13:01:09;;;;;;;2.60;1.45;;;7.50;99.90;;;;;;4982850;28;20053;-77
2022/01/14 13:03:35;;;;;;;5.78;1.58;;;7.50;99.90;;;;;;4966232;28;20096;-77
2022/01/14 13:06:01;;;;;;;3.33;1.10;;;7.50;99.90;;;;;;4982171;28;20060;-78
2022/01/14 13:08:28;;;;;;;2.35;1.38;;;7.50;99.90;;;;;;4998547;28;20038;-78
2022/01/14 13:11:05;;;;;;;2.20;1.48;;;7.50;99.90;;;;;;4999472;28;20405;-78
2022/01/14 13:13:31;;;;;;;8.85;2.75;;;7.50;99.90;;;;;;4999616;28;20037;-78
2022/01/14 13:16:05;;;;;;;3.60;1.45;;;7.50;99.90;;;;;;5000155;28;20064;-77
2022/01/14 13:18:42;;;;;;;10.35;2.10;;;7.50;99.90;;;;;;4999970;28;20085;-77
2022/01/14 13:21:07;;;;;;;0.88;0.85;;;7.50;99.90;;;;;;5000031;28;20100;-78
2022/01/14 13:23:33;;;;;;;1.35;1.23;;;7.50;99.90;;;;;;4981167;28;20486;-77
2022/01/14 13:26:01;;;;;;;14.25;2.17;;;7.50;99.90;;;;;;4999344;28;20088;-78
2022/01/14 13:28:26;;;;;;;2.22;1.90;;;7.60;99.90;;;;;;4999257;28;20049;-78
2022/01/14 13:30:52;;;;;;;1.25;1.17;;;7.50;99.90;;;;;;4980628;28;20037;-77